sensor_id;sensor_type;location;lat;lon;timestamp;temperature;humidity
15274;DHT22;7738;49.532;11.156;2023-06-22T00:01:58;17.40;99.90
15274;DHT22;7738;49.532;11.156;2023-06-22T00:04:28;17.30;99.90
15274;DHT22;7738;49.532;11.156;2023-06-22T00:06:58;17.30;99.90
15274;DHT22;7738;49.532;11.156;2023-06-22T00:09:28;17.30;99.90
15274;DHT22;7738;49.532;11.156;2023-06-22T00:11:58;17.20;99.90
15274;DHT22;7738;49.532;11.156;2023-06-22T00:14:31;17.20;99.90
15274;DHT22;7738;49.532;11.156;2023-06-22T00:17:01;17.20;99.90
15274;DHT22;7738;49.532;11.156;2023-06-22T00:19:31;17.10;99.90
15274;DHT22;7738;49.532;11.156;2023-06-22T00:22:03;17.10;99.90
15274;DHT22;7738;49.532;11.156;2023-06-22T00:24:33;17.10;99.90
15274;DHT22;7738;49.532;11.156;2023-06-22T00:27:04;17.10;99.90
15274;DHT22;7738;49.532;11.156;2023-06-22T00:29:37;17.10;99.90
15274;DHT22;7738;49.532;11.156;2023-06-22T00:32:07;17.10;99.90
15274;DHT22;7738;49.532;11.156;2023-06-22T00:34:37;17.10;99.90
15274;DHT22;7738;49.532;11.156;2023-06-22T00:37:07;17.00;99.90
15274;DHT22;7738;49.532;11.156;2023-06-22T00:39:38;17.00;99.90
15274;DHT22;7738;49.532;11.156;2023-06-22T00:42:08;16.90;99.90
15274;DHT22;7738;49.532;11.156;2023-06-22T00:44:41;16.90;99.90
15274;DHT22;7738;49.532;11.156;2023-06-22T00:47:13;16.80;99.90
15274;DHT22;7738;49.532;11.156;2023-06-22T00:49:44;16.80;99.90
15274;DHT22;7738;49.532;11.156;2023-06-22T00:52:15;16.70;99.90
15274;DHT22;7738;49.532;11.156;2023-06-22T00:54:49;16.70;99.90
15274;DHT22;7738;49.532;11.156;2023-06-22T00:57:20;16.60;99.90
15274;DHT22;7738;49.532;11.156;2023-06-22T00:59:57;16.60;99.90
15274;DHT22;7738;49.532;11.156;2023-06-22T01:02:28;16.50;99.90
15274;DHT22;7738;49.532;11.156;2023-06-22T01:04:58;16.50;99.90
15274;DHT22;7738;49.532;11.156;2023-06-22T01:07:34;16.50;99.90
15274;DHT22;7738;49.532;11.156;2023-06-22T01:10:10;16.50;99.90
15274;DHT22;7738;49.532;11.156;2023-06-22T01:12:44;16.50;99.90
15274;DHT22;7738;49.532;11.156;2023-06-22T01:15:21;16.60;99.90
15274;DHT22;7738;49.532;11.156;2023-06-22T01:17:53;16.60;99.90
15274;DHT22;7738;49.532;11.156;2023-06-22T01:20:25;16.50;99.90
15274;DHT22;7738;49.532;11.156;2023-06-22T01:23:17;16.50;99.90
15274;DHT22;7738;49.532;11.156;2023-06-22T01:25:59;16.50;99.90
15274;DHT22;7738;49.532;11.156;2023-06-22T01:28:41;16.40;99.90
15274;DHT22;7738;49.532;11.156;2023-06-22T01:31:15;16.40;99.90
15274;DHT22;7738;49.532;11.156;2023-06-22T01:33:50;16.50;99.90
15274;DHT22;7738;49.532;11.156;2023-06-22T01:36:22;16.40;99.90
15274;DHT22;7738;49.532;11.156;2023-06-22T01:38:53;16.40;99.90
15274;DHT22;7738;49.532;11.156;2023-06-22T01:41:25;16.40;99.90
15274;DHT22;7738;49.532;11.156;2023-06-22T01:43:59;16.30;99.90
15274;DHT22;7738;49.532;11.156;2023-06-22T01:46:30;16.30;99.90
15274;DHT22;7738;49.532;11.156;2023-06-22T01:49:02;16.30;99.90
15274;DHT22;7738;49.532;11.156;2023-06-22T01:51:32;16.30;99.90
15274;DHT22;7738;49.532;11.156;2023-06-22T01:54:03;16.30;99.90
15274;DHT22;7738;49.532;11.156;2023-06-22T01:56:33;16.30;99.90
15274;DHT22;7738;49.532;11.156;2023-06-22T01:59:11;16.30;99.90
15274;DHT22;7738;49.532;11.156;2023-06-22T02:01:43;16.30;99.90
15274;DHT22;7738;49.532;11.156;2023-06-22T02:04:20;16.20;99.90
15274;DHT22;7738;49.532;11.156;2023-06-22T02:06:56;16.20;99.90
15274;DHT22;7738;49.532;11.156;2023-06-22T02:09:30;16.20;99.90
15274;DHT22;7738;49.532;11.156;2023-06-22T02:12:02;16.20;99.90
15274;DHT22;7738;49.532;11.156;2023-06-22T02:14:37;16.20;99.90
15274;DHT22;7738;49.532;11.156;2023-06-22T02:17:09;16.20;99.90
15274;DHT22;7738;49.532;11.156;2023-06-22T02:19:41;16.20;99.90
15274;DHT22;7738;49.532;11.156;2023-06-22T02:22:11;16.10;99.90
15274;DHT22;7738;49.532;11.156;2023-06-22T02:24:43;16.10;99.90
15274;DHT22;7738;49.532;11.156;2023-06-22T02:27:13;16.10;99.90
15274;DHT22;7738;49.532;11.156;2023-06-22T02:29:46;16.10;99.90
15274;DHT22;7738;49.532;11.156;2023-06-22T02:32:16;16.00;99.90
15274;DHT22;7738;49.532;11.156;2023-06-22T02:34:47;16.00;99.90
15274;DHT22;7738;49.532;11.156;2023-06-22T02:37:18;15.90;99.90
15274;DHT22;7738;49.532;11.156;2023-06-22T02:39:48;16.00;99.90
15274;DHT22;7738;49.532;11.156;2023-06-22T02:42:19;15.90;99.90
15274;DHT22;7738;49.532;11.156;2023-06-22T02:44:52;15.90;99.90
15274;DHT22;7738;49.532;11.156;2023-06-22T02:47:22;15.90;99.90
15274;DHT22;7738;49.532;11.156;2023-06-22T02:49:52;16.00;99.90
15274;DHT22;7738;49.532;11.156;2023-06-22T02:52:23;16.00;99.90
15274;DHT22;7738;49.532;11.156;2023-06-22T02:54:53;16.00;99.90
15274;DHT22;7738;49.532;11.156;2023-06-22T02:57:23;16.00;99.90
15274;DHT22;7738;49.532;11.156;2023-06-22T02:59:56;16.10;99.90
15274;DHT22;7738;49.532;11.156;2023-06-22T03:02:26;16.10;99.90
15274;DHT22;7738;49.532;11.156;2023-06-22T03:04:57;16.20;99.90
15274;DHT22;7738;49.532;11.156;2023-06-22T03:07:29;16.20;99.90
15274;DHT22;7738;49.532;11.156;2023-06-22T03:09:59;16.20;99.90
15274;DHT22;7738;49.532;11.156;2023-06-22T03:12:29;16.20;99.90
15274;DHT22;7738;49.532;11.156;2023-06-22T03:15:03;16.20;99.90
15274;DHT22;7738;49.532;11.156;2023-06-22T03:17:34;16.30;99.90
15274;DHT22;7738;49.532;11.156;2023-06-22T03:20:08;16.30;99.90
15274;DHT22;7738;49.532;11.156;2023-06-22T03:22:41;16.30;99.90
15274;DHT22;7738;49.532;11.156;2023-06-22T03:25:12;16.30;99.90
15274;DHT22;7738;49.532;11.156;2023-06-22T03:27:45;16.30;99.90
15274;DHT22;7738;49.532;11.156;2023-06-22T03:30:18;16.30;99.90
15274;DHT22;7738;49.532;11.156;2023-06-22T03:32:48;16.30;99.90
15274;DHT22;7738;49.532;11.156;2023-06-22T03:35:18;16.20;99.90
15274;DHT22;7738;49.532;11.156;2023-06-22T03:37:49;16.20;99.90
15274;DHT22;7738;49.532;11.156;2023-06-22T03:40:20;16.20;99.90
15274;DHT22;7738;49.532;11.156;2023-06-22T03:42:50;16.20;99.90
15274;DHT22;7738;49.532;11.156;2023-06-22T03:45:23;16.30;99.90
15274;DHT22;7738;49.532;11.156;2023-06-22T03:47:53;16.20;99.90
15274;DHT22;7738;49.532;11.156;2023-06-22T03:50:23;16.20;99.90
15274;DHT22;7738;49.532;11.156;2023-06-22T03:52:54;16.20;99.90
15274;DHT22;7738;49.532;11.156;2023-06-22T03:55:24;16.20;99.90
15274;DHT22;7738;49.532;11.156;2023-06-22T03:57:54;16.20;99.90
15274;DHT22;7738;49.532;11.156;2023-06-22T04:00:27;16.30;99.90
15274;DHT22;7738;49.532;11.156;2023-06-22T04:02:57;16.20;99.90
15274;DHT22;7738;49.532;11.156;2023-06-22T04:05:27;16.30;99.90
15274;DHT22;7738;49.532;11.156;2023-06-22T04:07:58;16.30;99.90
15274;DHT22;7738;49.532;11.156;2023-06-22T04:10:28;16.30;99.90
15274;DHT22;7738;49.532;11.156;2023-06-22T04:12:58;16.30;99.90
15274;DHT22;7738;49.532;11.156;2023-06-22T04:15:31;16.30;99.90
15274;DHT22;7738;49.532;11.156;2023-06-22T04:18:01;16.40;99.90
15274;DHT22;7738;49.532;11.156;2023-06-22T04:20:31;16.50;99.90
15274;DHT22;7738;49.532;11.156;2023-06-22T04:23:02;16.60;99.90
15274;DHT22;7738;49.532;11.156;2023-06-22T04:25:32;16.80;99.90
15274;DHT22;7738;49.532;11.156;2023-06-22T04:28:03;17.00;99.90
15274;DHT22;7738;49.532;11.156;2023-06-22T04:30:42;17.00;99.90
15274;DHT22;7738;49.532;11.156;2023-06-22T04:33:16;17.10;99.90
15274;DHT22;7738;49.532;11.156;2023-06-22T04:35:46;17.20;99.90
15274;DHT22;7738;49.532;11.156;2023-06-22T04:38:17;17.30;99.90
15274;DHT22;7738;49.532;11.156;2023-06-22T04:40:49;17.40;99.90
15274;DHT22;7738;49.532;11.156;2023-06-22T04:43:20;17.50;99.90
15274;DHT22;7738;49.532;11.156;2023-06-22T04:45:53;17.60;99.90
15274;DHT22;7738;49.532;11.156;2023-06-22T04:48:23;17.70;99.90
15274;DHT22;7738;49.532;11.156;2023-06-22T04:50:59;17.80;99.90
15274;DHT22;7738;49.532;11.156;2023-06-22T04:53:31;17.80;99.90
15274;DHT22;7738;49.532;11.156;2023-06-22T04:56:01;17.80;99.90
15274;DHT22;7738;49.532;11.156;2023-06-22T04:58:31;18.50;99.90
15274;DHT22;7738;49.532;11.156;2023-06-22T05:01:04;17.80;99.90
15274;DHT22;7738;49.532;11.156;2023-06-22T05:03:35;17.80;99.90
15274;DHT22;7738;49.532;11.156;2023-06-22T05:06:09;17.80;99.90
15274;DHT22;7738;49.532;11.156;2023-06-22T05:08:40;17.80;99.90
15274;DHT22;7738;49.532;11.156;2023-06-22T05:11:10;17.80;99.90
15274;DHT22;7738;49.532;11.156;2023-06-22T05:13:40;17.80;99.90
15274;DHT22;7738;49.532;11.156;2023-06-22T05:16:13;17.80;99.90
15274;DHT22;7738;49.532;11.156;2023-06-22T05:18:43;17.80;99.90
15274;DHT22;7738;49.532;11.156;2023-06-22T05:21:14;17.80;99.90
15274;DHT22;7738;49.532;11.156;2023-06-22T05:23:44;17.90;99.90
15274;DHT22;7738;49.532;11.156;2023-06-22T05:26:14;17.90;99.90
15274;DHT22;7738;49.532;11.156;2023-06-22T05:28:58;17.90;99.90
15274;DHT22;7738;49.532;11.156;2023-06-22T05:31:46;18.00;99.90
15274;DHT22;7738;49.532;11.156;2023-06-22T05:34:30;18.00;99.90
15274;DHT22;7738;49.532;11.156;2023-06-22T05:37:00;18.20;99.90
15274;DHT22;7738;49.532;11.156;2023-06-22T05:39:30;18.40;99.90
15274;DHT22;7738;49.532;11.156;2023-06-22T05:42:00;18.30;99.90
15274;DHT22;7738;49.532;11.156;2023-06-22T05:44:31;18.40;99.90
15274;DHT22;7738;49.532;11.156;2023-06-22T05:47:04;18.50;99.90
15274;DHT22;7738;49.532;11.156;2023-06-22T05:49:34;18.60;99.90
15274;DHT22;7738;49.532;11.156;2023-06-22T05:52:04;18.70;99.90
15274;DHT22;7738;49.532;11.156;2023-06-22T05:54:35;18.90;99.90
15274;DHT22;7738;49.532;11.156;2023-06-22T05:57:06;19.00;99.90
15274;DHT22;7738;49.532;11.156;2023-06-22T05:59:36;19.10;99.90
15274;DHT22;7738;49.532;11.156;2023-06-22T06:02:08;19.30;99.90
15274;DHT22;7738;49.532;11.156;2023-06-22T06:04:39;19.50;99.90
15274;DHT22;7738;49.532;11.156;2023-06-22T06:07:09;19.60;99.90
15274;DHT22;7738;49.532;11.156;2023-06-22T06:09:39;19.70;99.90
15274;DHT22;7738;49.532;11.156;2023-06-22T06:12:09;19.80;99.90
15274;DHT22;7738;49.532;11.156;2023-06-22T06:14:39;20.00;99.90
15274;DHT22;7738;49.532;11.156;2023-06-22T06:17:12;20.10;99.90
15274;DHT22;7738;49.532;11.156;2023-06-22T06:19:42;20.20;99.90
15274;DHT22;7738;49.532;11.156;2023-06-22T06:22:12;20.30;99.90
15274;DHT22;7738;49.532;11.156;2023-06-22T06:24:42;20.50;99.90
15274;DHT22;7738;49.532;11.156;2023-06-22T06:27:12;20.60;99.90
15274;DHT22;7738;49.532;11.156;2023-06-22T06:29:42;20.80;99.90
15274;DHT22;7738;49.532;11.156;2023-06-22T06:32:15;20.90;99.90
15274;DHT22;7738;49.532;11.156;2023-06-22T06:34:45;21.00;99.90
15274;DHT22;7738;49.532;11.156;2023-06-22T06:37:17;21.10;99.90
15274;DHT22;7738;49.532;11.156;2023-06-22T06:39:47;21.30;99.90
15274;DHT22;7738;49.532;11.156;2023-06-22T06:42:17;21.40;99.90
15274;DHT22;7738;49.532;11.156;2023-06-22T06:44:47;21.60;99.90
15274;DHT22;7738;49.532;11.156;2023-06-22T06:47:19;21.60;99.90
15274;DHT22;7738;49.532;11.156;2023-06-22T06:49:50;21.70;99.90
15274;DHT22;7738;49.532;11.156;2023-06-22T06:52:20;21.80;99.90
15274;DHT22;7738;49.532;11.156;2023-06-22T06:54:50;22.00;99.90
15274;DHT22;7738;49.532;11.156;2023-06-22T06:57:21;22.10;99.90
15274;DHT22;7738;49.532;11.156;2023-06-22T06:59:56;22.30;99.90
15274;DHT22;7738;49.532;11.156;2023-06-22T07:02:28;22.40;99.90
15274;DHT22;7738;49.532;11.156;2023-06-22T07:04:58;22.40;99.90
15274;DHT22;7738;49.532;11.156;2023-06-22T07:07:30;22.60;99.90
15274;DHT22;7738;49.532;11.156;2023-06-22T07:10:05;22.70;99.90
15274;DHT22;7738;49.532;11.156;2023-06-22T07:12:36;22.90;99.90
15274;DHT22;7738;49.532;11.156;2023-06-22T07:15:07;23.00;99.90
15274;DHT22;7738;49.532;11.156;2023-06-22T07:17:41;23.20;99.90
15274;DHT22;7738;49.532;11.156;2023-06-22T07:20:12;23.30;99.90
15274;DHT22;7738;49.532;11.156;2023-06-22T07:22:44;23.90;99.90
15274;DHT22;7738;49.532;11.156;2023-06-22T07:25:14;23.50;99.90
15274;DHT22;7738;49.532;11.156;2023-06-22T07:27:46;23.70;99.90
15274;DHT22;7738;49.532;11.156;2023-06-22T07:30:23;23.90;99.90
15274;DHT22;7738;49.532;11.156;2023-06-22T07:32:58;23.90;99.90
15274;DHT22;7738;49.532;11.156;2023-06-22T07:35:31;24.00;99.90
15274;DHT22;7738;49.532;11.156;2023-06-22T07:38:01;24.50;99.90
15274;DHT22;7738;49.532;11.156;2023-06-22T07:40:32;24.20;99.90
15274;DHT22;7738;49.532;11.156;2023-06-22T07:43:03;24.40;99.90
15274;DHT22;7738;49.532;11.156;2023-06-22T07:45:33;24.80;99.90
15274;DHT22;7738;49.532;11.156;2023-06-22T07:48:06;24.50;99.90
15274;DHT22;7738;49.532;11.156;2023-06-22T07:50:36;24.70;99.90
15274;DHT22;7738;49.532;11.156;2023-06-22T07:53:06;25.00;99.90
15274;DHT22;7738;49.532;11.156;2023-06-22T07:55:36;25.20;99.90
15274;DHT22;7738;49.532;11.156;2023-06-22T07:58:06;25.20;99.90
15274;DHT22;7738;49.532;11.156;2023-06-22T08:00:36;25.40;99.90
15274;DHT22;7738;49.532;11.156;2023-06-22T08:03:09;25.50;99.90
15274;DHT22;7738;49.532;11.156;2023-06-22T08:05:39;25.90;99.90
15274;DHT22;7738;49.532;11.156;2023-06-22T08:08:09;25.90;99.90
15274;DHT22;7738;49.532;11.156;2023-06-22T08:10:41;26.30;99.90
15274;DHT22;7738;49.532;11.156;2023-06-22T08:13:12;26.00;99.90
15274;DHT22;7738;49.532;11.156;2023-06-22T08:15:42;26.20;99.90
15274;DHT22;7738;49.532;11.156;2023-06-22T08:18:18;26.50;99.90
15274;DHT22;7738;49.532;11.156;2023-06-22T08:20:48;26.80;99.90
15274;DHT22;7738;49.532;11.156;2023-06-22T08:23:18;26.80;99.90
15274;DHT22;7738;49.532;11.156;2023-06-22T08:25:48;26.60;99.90
15274;DHT22;7738;49.532;11.156;2023-06-22T08:28:18;27.00;99.50
15274;DHT22;7738;49.532;11.156;2023-06-22T08:30:48;27.20;99.40
15274;DHT22;7738;49.532;11.156;2023-06-22T08:33:21;27.40;98.80
15274;DHT22;7738;49.532;11.156;2023-06-22T08:35:55;27.70;98.50
15274;DHT22;7738;49.532;11.156;2023-06-22T08:38:25;27.80;97.80
15274;DHT22;7738;49.532;11.156;2023-06-22T08:40:56;28.30;97.10
15274;DHT22;7738;49.532;11.156;2023-06-22T08:43:27;28.20;96.20
15274;DHT22;7738;49.532;11.156;2023-06-22T08:45:57;28.10;96.20
15274;DHT22;7738;49.532;11.156;2023-06-22T08:48:30;28.10;96.00
15274;DHT22;7738;49.532;11.156;2023-06-22T08:51:00;28.40;94.20
15274;DHT22;7738;49.532;11.156;2023-06-22T08:53:30;28.30;94.60
15274;DHT22;7738;49.532;11.156;2023-06-22T08:56:02;28.40;93.90
15274;DHT22;7738;49.532;11.156;2023-06-22T08:58:32;28.50;93.80
15274;DHT22;7738;49.532;11.156;2023-06-22T09:01:02;28.50;93.50
15274;DHT22;7738;49.532;11.156;2023-06-22T09:03:34;28.30;93.50
15274;DHT22;7738;49.532;11.156;2023-06-22T09:06:05;28.20;93.80
15274;DHT22;7738;49.532;11.156;2023-06-22T09:08:36;28.30;93.60
15274;DHT22;7738;49.532;11.156;2023-06-22T09:11:06;28.30;92.90
15274;DHT22;7738;49.532;11.156;2023-06-22T09:13:36;28.60;93.30
15274;DHT22;7738;49.532;11.156;2023-06-22T09:16:07;29.00;92.50
15274;DHT22;7738;49.532;11.156;2023-06-22T09:18:39;29.20;91.80
15274;DHT22;7738;49.532;11.156;2023-06-22T09:21:10;29.60;91.10
15274;DHT22;7738;49.532;11.156;2023-06-22T09:23:40;29.60;90.60
15274;DHT22;7738;49.532;11.156;2023-06-22T09:26:10;29.90;89.70
15274;DHT22;7738;49.532;11.156;2023-06-22T09:28:40;30.10;90.10
15274;DHT22;7738;49.532;11.156;2023-06-22T09:31:10;30.50;88.50
15274;DHT22;7738;49.532;11.156;2023-06-22T09:33:43;30.30;86.20
15274;DHT22;7738;49.532;11.156;2023-06-22T09:36:14;30.40;84.00
15274;DHT22;7738;49.532;11.156;2023-06-22T09:38:44;30.70;84.60
15274;DHT22;7738;49.532;11.156;2023-06-22T09:41:14;30.80;83.70
15274;DHT22;7738;49.532;11.156;2023-06-22T09:43:44;31.10;82.50
15274;DHT22;7738;49.532;11.156;2023-06-22T09:46:15;30.90;81.80
15274;DHT22;7738;49.532;11.156;2023-06-22T09:48:47;31.50;81.10
15274;DHT22;7738;49.532;11.156;2023-06-22T09:51:18;31.90;79.60
15274;DHT22;7738;49.532;11.156;2023-06-22T09:53:51;31.70;76.30
15274;DHT22;7738;49.532;11.156;2023-06-22T09:56:21;31.70;75.30
15274;DHT22;7738;49.532;11.156;2023-06-22T09:58:55;31.70;75.00
15274;DHT22;7738;49.532;11.156;2023-06-22T10:01:44;31.80;73.20
15274;DHT22;7738;49.532;11.156;2023-06-22T10:04:16;31.80;69.90
15274;DHT22;7738;49.532;11.156;2023-06-22T10:06:47;32.00;73.00
15274;DHT22;7738;49.532;11.156;2023-06-22T10:09:17;32.20;71.40
15274;DHT22;7738;49.532;11.156;2023-06-22T10:11:48;32.10;67.70
15274;DHT22;7738;49.532;11.156;2023-06-22T10:14:19;32.10;67.90
15274;DHT22;7738;49.532;11.156;2023-06-22T10:16:49;32.10;67.60
15274;DHT22;7738;49.532;11.156;2023-06-22T10:19:22;32.30;67.40
15274;DHT22;7738;49.532;11.156;2023-06-22T10:21:52;32.60;65.40
15274;DHT22;7738;49.532;11.156;2023-06-22T10:24:22;32.50;64.70
15274;DHT22;7738;49.532;11.156;2023-06-22T10:26:52;32.70;67.10
15274;DHT22;7738;49.532;11.156;2023-06-22T10:29:22;32.80;64.40
15274;DHT22;7738;49.532;11.156;2023-06-22T10:31:52;32.70;62.50
15274;DHT22;7738;49.532;11.156;2023-06-22T10:34:25;32.90;64.00
15274;DHT22;7738;49.532;11.156;2023-06-22T10:36:55;33.20;62.10
15274;DHT22;7738;49.532;11.156;2023-06-22T10:39:25;33.20;61.90
15274;DHT22;7738;49.532;11.156;2023-06-22T10:41:55;33.30;61.80
15274;DHT22;7738;49.532;11.156;2023-06-22T10:44:25;33.50;61.10
15274;DHT22;7738;49.532;11.156;2023-06-22T10:46:57;33.60;59.20
15274;DHT22;7738;49.532;11.156;2023-06-22T10:49:30;33.70;58.90
15274;DHT22;7738;49.532;11.156;2023-06-22T10:52:00;33.80;58.00
15274;DHT22;7738;49.532;11.156;2023-06-22T10:54:30;34.00;58.80
15274;DHT22;7738;49.532;11.156;2023-06-22T10:57:01;34.00;58.80
15274;DHT22;7738;49.532;11.156;2023-06-22T10:59:31;34.40;58.20
15274;DHT22;7738;49.532;11.156;2023-06-22T11:02:01;34.50;57.20
15274;DHT22;7738;49.532;11.156;2023-06-22T11:04:34;34.40;56.60
15274;DHT22;7738;49.532;11.156;2023-06-22T11:07:05;34.40;56.50
15274;DHT22;7738;49.532;11.156;2023-06-22T11:09:35;34.40;56.60
15274;DHT22;7738;49.532;11.156;2023-06-22T11:12:07;34.60;56.70
15274;DHT22;7738;49.532;11.156;2023-06-22T11:14:38;34.60;55.40
15274;DHT22;7738;49.532;11.156;2023-06-22T11:17:08;34.90;55.20
15274;DHT22;7738;49.532;11.156;2023-06-22T11:19:41;34.90;55.00
15274;DHT22;7738;49.532;11.156;2023-06-22T11:22:11;34.70;54.60
15274;DHT22;7738;49.532;11.156;2023-06-22T11:24:41;34.80;54.90
15274;DHT22;7738;49.532;11.156;2023-06-22T11:27:11;35.10;55.20
15274;DHT22;7738;49.532;11.156;2023-06-22T11:29:41;35.10;53.80
15274;DHT22;7738;49.532;11.156;2023-06-22T11:32:11;35.10;54.00
15274;DHT22;7738;49.532;11.156;2023-06-22T11:34:44;35.10;53.90
15274;DHT22;7738;49.532;11.156;2023-06-22T11:37:15;35.20;53.50
15274;DHT22;7738;49.532;11.156;2023-06-22T11:39:45;35.00;52.70
15274;DHT22;7738;49.532;11.156;2023-06-22T11:42:31;35.10;53.30
15274;DHT22;7738;49.532;11.156;2023-06-22T11:45:02;34.90;53.20
15274;DHT22;7738;49.532;11.156;2023-06-22T11:47:34;35.20;53.70
15274;DHT22;7738;49.532;11.156;2023-06-22T11:50:08;35.20;52.70
15274;DHT22;7738;49.532;11.156;2023-06-22T11:52:38;35.60;53.90
15274;DHT22;7738;49.532;11.156;2023-06-22T11:55:08;35.50;52.40
15274;DHT22;7738;49.532;11.156;2023-06-22T11:57:53;35.50;51.80
15274;DHT22;7738;49.532;11.156;2023-06-22T12:00:23;35.50;52.00
15274;DHT22;7738;49.532;11.156;2023-06-22T12:02:56;35.50;51.70
15274;DHT22;7738;49.532;11.156;2023-06-22T12:05:30;35.50;51.90
15274;DHT22;7738;49.532;11.156;2023-06-22T12:08:00;35.50;51.70
15274;DHT22;7738;49.532;11.156;2023-06-22T12:10:30;35.60;52.20
15274;DHT22;7738;49.532;11.156;2023-06-22T12:13:01;35.70;52.00
15274;DHT22;7738;49.532;11.156;2023-06-22T12:15:31;35.90;53.50
15274;DHT22;7738;49.532;11.156;2023-06-22T12:18:01;36.00;51.20
15274;DHT22;7738;49.532;11.156;2023-06-22T12:20:34;36.40;52.90
15274;DHT22;7738;49.532;11.156;2023-06-22T12:23:04;36.60;48.90
15274;DHT22;7738;49.532;11.156;2023-06-22T12:25:34;36.50;49.60
15274;DHT22;7738;49.532;11.156;2023-06-22T12:28:04;36.30;50.00
15274;DHT22;7738;49.532;11.156;2023-06-22T12:30:35;36.30;50.40
15274;DHT22;7738;49.532;11.156;2023-06-22T12:33:05;35.70;49.40
15274;DHT22;7738;49.532;11.156;2023-06-22T12:35:37;35.50;51.60
15274;DHT22;7738;49.532;11.156;2023-06-22T12:38:07;35.80;50.40
15274;DHT22;7738;49.532;11.156;2023-06-22T12:40:38;35.90;49.10
15274;DHT22;7738;49.532;11.156;2023-06-22T12:43:08;35.80;49.30
15274;DHT22;7738;49.532;11.156;2023-06-22T12:45:38;35.40;49.70
15274;DHT22;7738;49.532;11.156;2023-06-22T12:48:08;34.90;50.20
15274;DHT22;7738;49.532;11.156;2023-06-22T12:50:42;35.30;50.60
15274;DHT22;7738;49.532;11.156;2023-06-22T12:53:15;35.10;51.40
15274;DHT22;7738;49.532;11.156;2023-06-22T12:55:45;35.40;52.40
15274;DHT22;7738;49.532;11.156;2023-06-22T12:58:16;35.90;51.20
15274;DHT22;7738;49.532;11.156;2023-06-22T13:00:46;36.30;50.40
15274;DHT22;7738;49.532;11.156;2023-06-22T13:03:16;36.30;47.70
15274;DHT22;7738;49.532;11.156;2023-06-22T13:05:49;36.30;48.30
15274;DHT22;7738;49.532;11.156;2023-06-22T13:08:19;36.10;48.60
15274;DHT22;7738;49.532;11.156;2023-06-22T13:11:09;35.70;48.40
15274;DHT22;7738;49.532;11.156;2023-06-22T13:13:40;35.60;49.60
15274;DHT22;7738;49.532;11.156;2023-06-22T13:16:10;35.60;49.60
15274;DHT22;7738;49.532;11.156;2023-06-22T13:18:41;35.00;49.40
15274;DHT22;7738;49.532;11.156;2023-06-22T13:21:15;35.00;50.00
15274;DHT22;7738;49.532;11.156;2023-06-22T13:23:45;35.00;50.50
15274;DHT22;7738;49.532;11.156;2023-06-22T13:26:15;34.80;50.50
15274;DHT22;7738;49.532;11.156;2023-06-22T13:28:45;35.00;50.40
15274;DHT22;7738;49.532;11.156;2023-06-22T13:31:15;35.20;50.60
15274;DHT22;7738;49.532;11.156;2023-06-22T13:33:59;35.20;49.00
15274;DHT22;7738;49.532;11.156;2023-06-22T13:36:45;35.60;49.70
15274;DHT22;7738;49.532;11.156;2023-06-22T13:39:29;35.90;48.30
15274;DHT22;7738;49.532;11.156;2023-06-22T13:42:13;35.90;48.80
15274;DHT22;7738;49.532;11.156;2023-06-22T13:44:57;35.80;48.60
15274;DHT22;7738;49.532;11.156;2023-06-22T13:47:41;35.20;48.20
15274;DHT22;7738;49.532;11.156;2023-06-22T13:50:25;34.90;49.90
15274;DHT22;7738;49.532;11.156;2023-06-22T13:52:59;34.50;50.80
15274;DHT22;7738;49.532;11.156;2023-06-22T13:55:29;34.30;51.30
15274;DHT22;7738;49.532;11.156;2023-06-22T13:57:59;34.10;52.50
15274;DHT22;7738;49.532;11.156;2023-06-22T14:03:00;34.00;52.40
15274;DHT22;7738;49.532;11.156;2023-06-22T14:05:30;34.50;52.80
15274;DHT22;7738;49.532;11.156;2023-06-22T14:08:03;34.80;51.70
15274;DHT22;7738;49.532;11.156;2023-06-22T14:10:53;34.70;50.40
15274;DHT22;7738;49.532;11.156;2023-06-22T14:13:23;34.90;50.50
15274;DHT22;7738;49.532;11.156;2023-06-22T14:15:53;35.00;50.60
15274;DHT22;7738;49.532;11.156;2023-06-22T14:18:23;34.80;49.70
15274;DHT22;7738;49.532;11.156;2023-06-22T14:20:54;34.90;50.40
15274;DHT22;7738;49.532;11.156;2023-06-22T14:23:27;34.90;50.50
15274;DHT22;7738;49.532;11.156;2023-06-22T14:25:57;35.10;51.20
15274;DHT22;7738;49.532;11.156;2023-06-22T14:28:27;34.90;50.40
15274;DHT22;7738;49.532;11.156;2023-06-22T14:30:58;35.00;51.50
15274;DHT22;7738;49.532;11.156;2023-06-22T14:33:28;34.90;51.10
15274;DHT22;7738;49.532;11.156;2023-06-22T14:35:58;34.70;51.20
15274;DHT22;7738;49.532;11.156;2023-06-22T14:38:31;34.80;51.40
15274;DHT22;7738;49.532;11.156;2023-06-22T14:41:01;35.00;51.20
15274;DHT22;7738;49.532;11.156;2023-06-22T14:43:44;35.10;51.30
15274;DHT22;7738;49.532;11.156;2023-06-22T14:46:17;35.10;50.40
15274;DHT22;7738;49.532;11.156;2023-06-22T14:48:48;35.10;49.80
15274;DHT22;7738;49.532;11.156;2023-06-22T14:51:18;35.00;50.80
15274;DHT22;7738;49.532;11.156;2023-06-22T14:53:51;34.70;51.30
15274;DHT22;7738;49.532;11.156;2023-06-22T14:56:21;34.50;50.90
15274;DHT22;7738;49.532;11.156;2023-06-22T15:01:25;34.60;50.20
15274;DHT22;7738;49.532;11.156;2023-06-22T15:03:55;34.80;51.10
15274;DHT22;7738;49.532;11.156;2023-06-22T15:06:25;35.30;50.80
15274;DHT22;7738;49.532;11.156;2023-06-22T15:08:58;35.10;50.50
15274;DHT22;7738;49.532;11.156;2023-06-22T15:11:28;34.90;49.40
15274;DHT22;7738;49.532;11.156;2023-06-22T15:13:59;34.70;49.00
15274;DHT22;7738;49.532;11.156;2023-06-22T15:16:29;34.90;51.70
15274;DHT22;7738;49.532;11.156;2023-06-22T15:21:30;34.60;49.30
15274;DHT22;7738;49.532;11.156;2023-06-22T15:24:04;34.60;50.50
15274;DHT22;7738;49.532;11.156;2023-06-22T15:26:34;34.30;51.00
15274;DHT22;7738;49.532;11.156;2023-06-22T15:29:04;34.70;51.10
15274;DHT22;7738;49.532;11.156;2023-06-22T15:31:35;34.70;50.00
15274;DHT22;7738;49.532;11.156;2023-06-22T15:34:05;34.70;50.30
15274;DHT22;7738;49.532;11.156;2023-06-22T15:36:35;34.70;50.50
15274;DHT22;7738;49.532;11.156;2023-06-22T15:39:08;34.60;50.10
15274;DHT22;7738;49.532;11.156;2023-06-22T15:41:40;34.40;50.90
15274;DHT22;7738;49.532;11.156;2023-06-22T15:44:11;34.10;50.00
15274;DHT22;7738;49.532;11.156;2023-06-22T15:46:42;34.10;50.80
15274;DHT22;7738;49.532;11.156;2023-06-22T15:49:12;34.10;51.00
15274;DHT22;7738;49.532;11.156;2023-06-22T15:51:43;34.20;51.40
15274;DHT22;7738;49.532;11.156;2023-06-22T15:54:16;34.20;51.40
15274;DHT22;7738;49.532;11.156;2023-06-22T15:56:46;34.30;51.60
15274;DHT22;7738;49.532;11.156;2023-06-22T15:59:16;34.30;50.70
15274;DHT22;7738;49.532;11.156;2023-06-22T16:01:47;34.40;51.10
15274;DHT22;7738;49.532;11.156;2023-06-22T16:04:17;34.40;50.60
15274;DHT22;7738;49.532;11.156;2023-06-22T16:06:47;34.40;51.20